KPAE

Snohomish County (Paine Field) Airport

Everett, Washington, USA
METAR KPAE 150053Z 33006KT 2 1/2SM HZ FU OVC034 26/14 A2987 RMK AO2 SLP111 T02560144
Observed Flight Rules
Aug-15 @ 00:53 UTC (10 minutes ago) Instrument Flight Rules
Wind Visibility Clouds Conditions
330° at 6 knots 2 1/2 miles
  • Overcast at 3,400' AGL
  • Haze
  • Smoke
Temperatures Readings
Current 26°C / 79°F
Dewpoint 14°C / 57°F
Humidity 48%
Altimeter 29.87" Hg
Pressure 1011.1 hPa
Elevation 180
METAR KPAE 150053Z 33006KT 2 1/2SM HZ FU OVC034 26/14 A2987 RMK AO2 SLP111 T02560144
Observed Flight Rules
Aug-15 @ 00:53 UTC
(10 minutes ago)
IFR
Wind Visibility
330° at 6 knots 2 1/2 miles
Clouds
  • Overcast at 3,400' AGL
Conditions
  • Haze
  • Smoke
Temperature Dewpoint
26°C / 79°F 14°C / 57°F
Humidity Altimeter Pressure
48% 29.87" Hg 1011.1 hPa